Main page
METAR-TAF:

METAR-TAF

Airports :

Perry Lefors Field

Pampa, Texas, United States

latitude: 35-36-46N, longitude: 100-59-46W, elevation: 3244 ft

Current weather observation

The report was made 11 minutes ago, at 03:35 UTC
Wind 10 mph from the East/Southeast
Temperature 73°F
Humidity 78%
Pressure 29.94 in. Hg
Visibility: 10 miles
Clear sky

METAR: KPPA 260335Z AUTO 12009KT 10SM CLR 23/19 A2994 RMK AO2 T02340187

Time: 22:46 (03:46 UTC)


TAF: missing

Weather observations and forecasts of more than 4000 airports (METAR and TAF reports).

The available stations are represented by yellow and red dots on the map.

Hover mouse over dot to see the name of the station.

Then click to see weather observations and forecasts.

To change the map : click on the green buttons with a black cross to zoom in, on the green button with a dash to zoom out, or on the green arrows for adjacent maps.


METAR-TAF: